createdAt,value
2022-12-03T00:01:38.974Z,101091.38
2022-12-03T00:04:07.960Z,101095.16
2022-12-03T00:06:36.016Z,101088.25
2022-12-03T00:09:04.985Z,101090.44
2022-12-03T00:11:33.017Z,101091.03
2022-12-03T00:14:00.939Z,101095.16
2022-12-03T00:16:28.818Z,101088.97
2022-12-03T00:18:56.857Z,101084.59
2022-12-03T00:21:25.090Z,101083.28
2022-12-03T00:23:53.047Z,101078.81
2022-12-03T00:26:21.245Z,101087.06
2022-12-03T00:28:49.762Z,101081.69
2022-12-03T00:31:18.759Z,101092.53
2022-12-03T00:33:46.663Z,101083.69
2022-12-03T00:36:14.564Z,101073.81
2022-12-03T00:38:42.530Z,101072.72
2022-12-03T00:41:10.561Z,101074.38
2022-12-03T00:43:38.461Z,101066.53
2022-12-03T00:46:06.557Z,101060.41
2022-12-03T00:48:37.134Z,101074.72
2022-12-03T00:51:05.262Z,101069.00
2022-12-03T00:53:33.337Z,101069.59
2022-12-03T00:56:01.857Z,101063.16
2022-12-03T00:58:29.789Z,101063.91
2022-12-03T01:00:58.209Z,101063.72
2022-12-03T01:03:26.383Z,101068.09
2022-12-03T01:05:54.325Z,101066.53
2022-12-03T01:08:22.255Z,101069.25
2022-12-03T01:10:50.479Z,101074.69
2022-12-03T01:13:18.423Z,101075.84
2022-12-03T01:15:46.369Z,101076.34
2022-12-03T01:18:14.432Z,101071.16
2022-12-03T01:20:42.409Z,101066.34
2022-12-03T01:23:10.332Z,101064.63
2022-12-03T01:25:38.301Z,101076.75
2022-12-03T01:28:06.184Z,101074.13
2022-12-03T01:30:54.571Z,101072.72
2022-12-03T01:33:22.515Z,101074.53
2022-12-03T01:35:50.429Z,101064.75
2022-12-03T01:38:18.354Z,101071.38
2022-12-03T01:40:46.346Z,101067.56
2022-12-03T01:43:14.265Z,101074.66
2022-12-03T01:45:42.267Z,101058.41
2022-12-03T01:48:16.918Z,101080.69
2022-12-03T01:50:45.567Z,101064.50
2022-12-03T01:53:16.912Z,101068.06
2022-12-03T01:55:48.752Z,101072.22
2022-12-03T01:58:19.959Z,101071.03
2022-12-03T02:00:47.923Z,101071.53
2022-12-03T02:03:21.346Z,101070.41
2022-12-03T02:05:49.786Z,101073.94
2022-12-03T02:08:31.937Z,101064.03
2022-12-03T02:11:07.979Z,101054.22
2022-12-03T02:13:36.693Z,101052.41
2022-12-03T02:16:05.022Z,101052.56
2022-12-03T02:18:32.957Z,101044.16
2022-12-03T02:21:25.144Z,101043.00
2022-12-03T02:24:00.744Z,101051.69
2022-12-03T02:26:30.026Z,101053.66
2022-12-03T02:28:58.242Z,101045.78
2022-12-03T02:31:26.407Z,101045.28
2022-12-03T02:33:54.532Z,101040.19
2022-12-03T02:36:22.765Z,101047.13
2022-12-03T02:38:51.335Z,101033.09
2022-12-03T02:41:40.077Z,101028.31
2022-12-03T02:44:09.237Z,101029.31
2022-12-03T02:46:37.443Z,101028.81
2022-12-03T02:49:06.743Z,101029.31
2022-12-03T02:51:35.342Z,101029.28
2022-12-03T02:54:03.916Z,101021.75
2022-12-03T02:56:33.210Z,101028.88
2022-12-03T02:59:03.511Z,101028.53
2022-12-03T03:01:31.654Z,101031.41
2022-12-03T03:03:59.693Z,101032.00
2022-12-03T03:06:27.621Z,101029.94
2022-12-03T03:08:55.813Z,101027.22
2022-12-03T03:11:24.616Z,101025.88
2022-12-03T03:13:52.551Z,101026.47
2022-12-03T03:16:20.693Z,101019.88
2022-12-03T03:18:49.404Z,101017.22
2022-12-03T03:21:17.228Z,101013.41
2022-12-03T03:23:45.176Z,101010.94
2022-12-03T03:26:14.550Z,101014.56
2022-12-03T03:28:51.946Z,101021.59
2022-12-03T03:31:23.306Z,101022.16
2022-12-03T03:33:51.975Z,101019.75
2022-12-03T03:36:20.447Z,101016.22
2022-12-03T03:38:49.163Z,101021.16
2022-12-03T03:41:17.822Z,101026.75
2022-12-03T03:43:48.368Z,101026.19
2022-12-03T03:46:17.706Z,101022.44
2022-12-03T03:48:45.915Z,101019.78
2022-12-03T03:51:14.798Z,101023.09
2022-12-03T03:53:48.080Z,101023.09
2022-12-03T03:56:20.751Z,101012.50
2022-12-03T03:58:48.837Z,101011.72
2022-12-03T04:01:18.178Z,101014.59
2022-12-03T04:03:46.296Z,101017.16
2022-12-03T04:06:14.179Z,101012.19
2022-12-03T04:08:42.364Z,101015.03
2022-12-03T04:11:28.913Z,101009.59
2022-12-03T04:13:56.868Z,101009.75
2022-12-03T04:16:24.889Z,101008.28
2022-12-03T04:18:52.952Z,101004.16
2022-12-03T04:21:42.178Z,101006.63
2022-12-03T04:24:12.067Z,101002.03
2022-12-03T04:26:58.590Z,101001.34
2022-12-03T04:29:26.704Z,101003.53
2022-12-03T04:32:13.171Z,100992.88
2022-12-03T04:34:59.440Z,100995.09
2022-12-03T04:37:27.828Z,101001.13
2022-12-03T04:39:55.790Z,101000.72
2022-12-03T04:42:23.780Z,100993.78
2022-12-03T04:44:52.305Z,101004.41
2022-12-03T04:47:22.285Z,101004.69
2022-12-03T04:49:51.749Z,100987.00
2022-12-03T04:52:20.995Z,100988.13
2022-12-03T04:54:49.034Z,100984.44
2022-12-03T04:57:17.088Z,100994.03
2022-12-03T04:59:45.078Z,100993.47
2022-12-03T05:02:13.025Z,100995.03
2022-12-03T05:04:41.005Z,101001.81
2022-12-03T05:07:08.942Z,100992.13
2022-12-03T05:09:36.894Z,100988.81
2022-12-03T05:12:05.079Z,100993.78
2022-12-03T05:14:32.971Z,100990.78
2022-12-03T05:17:01.143Z,100991.94
2022-12-03T05:19:47.840Z,100994.66
2022-12-03T05:22:15.902Z,100986.84
2022-12-03T05:24:43.838Z,100994.19
2022-12-03T05:27:11.672Z,100988.25
2022-12-03T05:29:39.606Z,100982.22
2022-12-03T05:32:07.510Z,100983.38
2022-12-03T05:34:35.402Z,100979.69
2022-12-03T05:37:03.527Z,100980.41
2022-12-03T05:39:31.546Z,100973.63
2022-12-03T05:42:17.826Z,100977.75
2022-12-03T05:44:45.750Z,100989.53
2022-12-03T05:47:13.679Z,100987.13
2022-12-03T05:49:41.653Z,100983.84
2022-12-03T05:52:09.582Z,100983.59
2022-12-03T05:54:37.440Z,100978.19
2022-12-03T05:57:05.974Z,100985.22
2022-12-03T05:59:34.532Z,100979.72
2022-12-03T06:02:02.818Z,100976.66
2022-12-03T06:04:30.843Z,100978.25
2022-12-03T06:06:59.111Z,100984.91
2022-12-03T06:09:27.059Z,100981.31
2022-12-03T06:11:54.996Z,100988.78
2022-12-03T06:14:23.031Z,100976.88
2022-12-03T06:16:50.992Z,100987.59
2022-12-03T06:19:18.944Z,100980.47
2022-12-03T06:21:46.823Z,100981.44
2022-12-03T06:24:14.832Z,100980.25
2022-12-03T06:26:42.796Z,100976.19
2022-12-03T06:29:10.730Z,100975.41
2022-12-03T06:31:38.657Z,100976.72
2022-12-03T06:34:06.645Z,100975.91
2022-12-03T06:36:34.558Z,100983.78
2022-12-03T06:39:02.488Z,100979.13
2022-12-03T06:41:30.638Z,100977.22
2022-12-03T06:43:58.584Z,100978.19
2022-12-03T06:46:26.540Z,100974.69
2022-12-03T06:48:54.618Z,100977.53
2022-12-03T06:51:22.603Z,100978.06
2022-12-03T06:53:50.445Z,100984.56
2022-12-03T06:56:22.041Z,100984.44
2022-12-03T06:58:50.304Z,100978.94
2022-12-03T07:01:18.409Z,100975.72
2022-12-03T07:03:46.800Z,100979.09
2022-12-03T07:06:14.814Z,100978.00
2022-12-03T07:08:42.787Z,100983.16
2022-12-03T07:11:30.636Z,100974.28
2022-12-03T07:14:05.179Z,100971.50
2022-12-03T07:16:35.625Z,100969.34
2022-12-03T07:19:05.425Z,100969.38
2022-12-03T07:21:33.648Z,100978.13
2022-12-03T07:24:01.784Z,100977.38
2022-12-03T07:26:30.033Z,100974.72
2022-12-03T07:28:58.225Z,100970.13
2022-12-03T07:31:26.241Z,100971.50
2022-12-03T07:33:54.313Z,100971.56
2022-12-03T07:36:22.293Z,100973.72
2022-12-03T07:38:50.271Z,100968.53
2022-12-03T07:41:18.240Z,100974.00
2022-12-03T07:43:46.303Z,100973.28
2022-12-03T07:46:14.245Z,100963.13
2022-12-03T07:48:42.132Z,100967.44
2022-12-03T07:51:15.207Z,100968.53
2022-12-03T07:53:43.603Z,100965.16
2022-12-03T07:56:11.570Z,100968.34
2022-12-03T07:58:40.214Z,100963.84
2022-12-03T08:01:08.600Z,100957.56
2022-12-03T08:03:36.627Z,100959.72
2022-12-03T08:06:05.274Z,100973.19
2022-12-03T08:08:33.174Z,100964.13
2022-12-03T08:11:02.298Z,100961.72
2022-12-03T08:13:30.392Z,100963.47
2022-12-03T08:16:02.136Z,100966.19
2022-12-03T08:18:30.150Z,100960.53
2022-12-03T08:20:58.433Z,100963.03
2022-12-03T08:23:26.505Z,100969.78
2022-12-03T08:25:54.490Z,100970.44
2022-12-03T08:28:26.917Z,100970.19
2022-12-03T08:31:02.773Z,100959.63
2022-12-03T08:33:35.935Z,100959.13
2022-12-03T08:36:14.940Z,100956.09
2022-12-03T08:38:48.399Z,100955.66
2022-12-03T08:41:36.860Z,100955.38
2022-12-03T08:44:38.993Z,100949.06
2022-12-03T08:47:11.155Z,100953.72
2022-12-03T08:49:40.615Z,100947.75
2022-12-03T08:52:16.609Z,100950.78
2022-12-03T08:54:51.823Z,100947.00
2022-12-03T08:57:28.067Z,100943.19
2022-12-03T09:00:21.274Z,100943.22
2022-12-03T09:02:54.858Z,100945.53
2022-12-03T09:05:27.505Z,100932.44
2022-12-03T09:07:55.488Z,100931.38
2022-12-03T09:10:23.401Z,100935.53
2022-12-03T09:12:51.489Z,100934.72
2022-12-03T09:15:19.322Z,100939.66
2022-12-03T09:17:47.389Z,100941.59
2022-12-03T09:20:15.401Z,100952.53
2022-12-03T09:22:43.246Z,100945.09
2022-12-03T09:25:11.284Z,100944.00
2022-12-03T09:27:39.166Z,100951.69
2022-12-03T09:30:07.599Z,100934.47
2022-12-03T09:32:35.482Z,100935.78
2022-12-03T09:35:03.713Z,100941.81
2022-12-03T09:37:31.615Z,100932.53
2022-12-03T09:39:59.615Z,100933.59
2022-12-03T09:42:27.689Z,100941.88
2022-12-03T09:44:56.068Z,100924.59
2022-12-03T09:47:25.360Z,100928.69
2022-12-03T09:49:53.862Z,100929.78
2022-12-03T09:52:27.591Z,100925.72
2022-12-03T09:55:05.674Z,100922.94
2022-12-03T09:57:33.619Z,100914.47
2022-12-03T10:00:01.786Z,100912.31
2022-12-03T10:02:31.320Z,100905.72
2022-12-03T10:04:59.369Z,100898.06
2022-12-03T10:07:27.489Z,100892.03
2022-12-03T10:09:55.774Z,100895.88
2022-12-03T10:12:25.179Z,100885.47
2022-12-03T10:14:54.396Z,100882.72
2022-12-03T10:17:22.432Z,100886.00
2022-12-03T10:19:50.786Z,100886.56
2022-12-03T10:22:18.951Z,100883.25
2022-12-03T10:25:03.924Z,100885.13
2022-12-03T10:27:32.901Z,100879.41
2022-12-03T10:30:03.529Z,100886.50
2022-12-03T10:32:45.981Z,100890.88
2022-12-03T10:35:20.970Z,100879.13
2022-12-03T10:37:55.018Z,100880.44
2022-12-03T10:40:46.094Z,100866.00
2022-12-03T10:43:20.089Z,100874.19
2022-12-03T10:46:03.344Z,100872.28
2022-12-03T10:48:32.259Z,100867.31
2022-12-03T10:51:13.730Z,100865.59
2022-12-03T10:53:42.265Z,100866.94
2022-12-03T10:56:29.050Z,100868.53
2022-12-03T10:59:01.901Z,100872.63
2022-12-03T11:01:31.932Z,100871.06
2022-12-03T11:04:09.047Z,100877.28
2022-12-03T11:06:38.191Z,100876.25
2022-12-03T11:09:18.817Z,100877.03
2022-12-03T11:11:47.717Z,100882.00
2022-12-03T11:14:57.042Z,100892.97
2022-12-03T11:17:48.419Z,100877.16
2022-12-03T11:20:26.237Z,100881.03
2022-12-03T11:22:59.942Z,100876.59
2022-12-03T11:25:33.679Z,100866.53
2022-12-03T11:28:13.411Z,100873.31
2022-12-03T11:30:51.186Z,100863.72
2022-12-03T11:33:34.347Z,100862.84
2022-12-03T11:36:03.977Z,100862.25
2022-12-03T11:38:38.524Z,100854.69
2022-12-03T11:41:07.458Z,100849.97
2022-12-03T11:44:20.345Z,100852.41
2022-12-03T11:46:49.826Z,100849.13
2022-12-03T11:49:34.198Z,100844.72
2022-12-03T11:52:18.130Z,100824.50
2022-12-03T11:54:56.801Z,100834.31
2022-12-03T11:57:39.942Z,100834.78
2022-12-03T12:00:21.421Z,100832.84
2022-12-03T12:02:52.122Z,100826.34
2022-12-03T12:05:25.110Z,100824.44
2022-12-03T12:07:54.491Z,100816.25
2022-12-03T12:10:46.220Z,100828.75
2022-12-03T12:13:33.965Z,100815.94
2022-12-03T12:16:05.319Z,100813.47
2022-12-03T12:18:42.609Z,100803.03
2022-12-03T12:21:47.949Z,100802.47
2022-12-03T12:24:47.794Z,100810.47
2022-12-03T12:27:23.989Z,100810.13
2022-12-03T12:29:59.397Z,100808.00
2022-12-03T12:32:55.637Z,100805.88
2022-12-03T12:35:26.465Z,100815.47
2022-12-03T12:38:00.508Z,100814.69
2022-12-03T12:40:32.042Z,100799.31
2022-12-03T12:43:11.811Z,100804.81
2022-12-03T12:45:43.590Z,100803.81
2022-12-03T12:48:23.746Z,100807.38
2022-12-03T12:51:01.128Z,100798.34
2022-12-03T12:53:41.388Z,100791.22
2022-12-03T12:56:19.466Z,100795.59
2022-12-03T12:58:49.257Z,100795.38
2022-12-03T13:01:22.670Z,100784.47
2022-12-03T13:03:52.617Z,100799.22
2022-12-03T13:06:33.372Z,100788.31
2022-12-03T13:09:02.960Z,100783.09
2022-12-03T13:11:42.600Z,100778.16
2022-12-03T13:14:22.716Z,100772.94
2022-12-03T13:16:54.632Z,100762.00
2022-12-03T13:19:39.612Z,100771.84
2022-12-03T13:22:20.652Z,100771.84
2022-12-03T13:24:54.523Z,100769.09
2022-12-03T13:27:29.865Z,100773.78
2022-12-03T13:30:16.192Z,100778.72
2022-12-03T13:32:44.630Z,100775.66
2022-12-03T13:35:27.117Z,100779.78
2022-12-03T13:37:55.052Z,100779.78
2022-12-03T13:40:41.557Z,100773.19
2022-12-03T13:43:18.939Z,100776.75
2022-12-03T13:45:54.484Z,100766.34
2022-12-03T13:48:25.348Z,100774.53
2022-12-03T13:50:56.407Z,100766.59
2022-12-03T13:53:26.719Z,100767.72
2022-12-03T13:56:19.705Z,100756.78
2022-12-03T13:58:47.581Z,100761.91
2022-12-03T14:01:15.508Z,100765.47
2022-12-03T14:03:44.785Z,100769.63
2022-12-03T14:06:12.613Z,100767.13
2022-12-03T14:08:40.619Z,100757.53
2022-12-03T14:11:08.864Z,100764.66
2022-12-03T14:13:38.391Z,100769.34
2022-12-03T14:16:07.950Z,100760.28
2022-12-03T14:18:35.886Z,100770.69
2022-12-03T14:21:03.858Z,100758.91
2022-12-03T14:23:31.704Z,100763.84
2022-12-03T14:25:59.585Z,100767.34
2022-12-03T14:28:27.732Z,100770.84
2022-12-03T14:30:55.707Z,100767.00
2022-12-03T14:33:23.878Z,100766.47
2022-12-03T14:35:54.465Z,100773.59
2022-12-03T14:38:22.421Z,100765.19
2022-12-03T14:40:50.352Z,100774.78
2022-12-03T14:43:18.200Z,100770.97
2022-12-03T14:45:46.315Z,100779.44
2022-12-03T14:48:14.294Z,100770.97
2022-12-03T14:50:42.239Z,100782.50
2022-12-03T14:53:10.209Z,100779.50
2022-12-03T14:55:38.533Z,100783.34
2022-12-03T14:58:06.570Z,100784.16
2022-12-03T15:00:34.493Z,100777.88
2022-12-03T15:03:02.377Z,100784.16
2022-12-03T15:05:30.382Z,100785.00
2022-12-03T15:07:58.242Z,100783.38
2022-12-03T15:10:26.085Z,100782.25
2022-12-03T15:12:53.925Z,100783.38
2022-12-03T15:15:24.098Z,100782.56
2022-12-03T15:17:51.955Z,100785.56
2022-12-03T15:20:19.946Z,100783.03
2022-12-03T15:22:47.873Z,100782.78
2022-12-03T15:25:16.216Z,100778.94
2022-12-03T15:27:44.253Z,100786.88
2022-12-03T15:30:12.289Z,100785.78
2022-12-03T15:32:40.759Z,100780.56
2022-12-03T15:35:09.038Z,100783.31
2022-12-03T15:37:37.011Z,100782.50
2022-12-03T15:40:05.877Z,100785.78
2022-12-03T15:42:33.754Z,100792.34
2022-12-03T15:45:01.804Z,100795.09
2022-12-03T15:47:31.075Z,100804.34
2022-12-03T15:49:59.257Z,100791.22
2022-12-03T15:52:27.096Z,100795.34
2022-12-03T15:54:55.448Z,100791.50
2022-12-03T15:57:23.870Z,100792.28
2022-12-03T15:59:52.187Z,100789.53
2022-12-03T16:02:20.568Z,100798.91
2022-12-03T16:04:48.626Z,100795.09
2022-12-03T16:07:16.627Z,100802.19
2022-12-03T16:09:44.518Z,100808.75
2022-12-03T16:12:12.390Z,100801.59
2022-12-03T16:14:40.214Z,100799.97
2022-12-03T16:17:08.306Z,100801.06
2022-12-03T16:19:36.678Z,100798.91
2022-12-03T16:22:04.548Z,100805.78
2022-12-03T16:24:32.470Z,100801.91
2022-12-03T16:27:00.507Z,100804.41
2022-12-03T16:29:28.361Z,100813.22
2022-12-03T16:31:56.465Z,100800.31
2022-12-03T16:34:24.415Z,100805.00
2022-12-03T16:36:52.412Z,100805.25
2022-12-03T16:39:20.309Z,100802.81
2022-12-03T16:41:48.178Z,100795.69
2022-12-03T16:44:42.188Z,100797.84
2022-12-03T16:47:10.058Z,100807.16
2022-12-03T16:49:38.039Z,100807.69
2022-12-03T16:52:06.022Z,100809.91
2022-12-03T16:54:33.888Z,100811.53
2022-12-03T16:57:01.703Z,100817.31
2022-12-03T16:59:29.630Z,100800.84
2022-12-03T17:01:57.631Z,100812.38
2022-12-03T17:04:25.557Z,100802.53
2022-12-03T17:06:53.425Z,100810.75
2022-12-03T17:09:21.415Z,100810.75
2022-12-03T17:11:49.269Z,100806.63
2022-12-03T17:14:17.159Z,100814.31
2022-12-03T17:16:45.119Z,100810.22
2022-12-03T17:19:13.351Z,100815.91
2022-12-03T17:21:42.102Z,100818.69
2022-12-03T17:24:10.006Z,100814.84
2022-12-03T17:26:39.546Z,100817.03
2022-12-03T17:29:08.275Z,100818.94
2022-12-03T17:31:43.871Z,100827.97
2022-12-03T17:34:19.895Z,100817.53
2022-12-03T17:36:50.049Z,100827.13
2022-12-03T17:39:21.948Z,100818.91
2022-12-03T17:41:51.954Z,100811.81
2022-12-03T17:44:22.236Z,100812.63
2022-12-03T17:46:52.225Z,100806.59
2022-12-03T17:49:25.639Z,100804.66
2022-12-03T17:51:59.490Z,100806.56
2022-12-03T17:54:49.134Z,100809.81
2022-12-03T17:57:28.864Z,100805.47
2022-12-03T17:59:57.705Z,100807.66
2022-12-03T18:02:26.683Z,100805.44
2022-12-03T18:04:57.795Z,100810.34
2022-12-03T18:07:40.784Z,100803.53
2022-12-03T18:10:19.765Z,100806.81
2022-12-03T18:13:01.716Z,100799.72
2022-12-03T18:15:34.405Z,100799.97
2022-12-03T18:18:04.021Z,100804.34
2022-12-03T18:20:35.253Z,100810.09
2022-12-03T18:23:04.975Z,100805.19
2022-12-03T18:25:34.247Z,100798.63
2022-12-03T18:28:04.182Z,100794.78
2022-12-03T18:30:37.926Z,100800.84
2022-12-03T18:33:09.499Z,100800.28
2022-12-03T18:35:45.162Z,100796.72
2022-12-03T18:38:21.844Z,100799.47
2022-12-03T18:40:59.543Z,100794.28
2022-12-03T18:43:32.964Z,100791.78
2022-12-03T18:46:07.744Z,100784.44
2022-12-03T18:49:00.743Z,100783.59
2022-12-03T18:51:34.476Z,100780.31
2022-12-03T18:54:48.164Z,100780.88
2022-12-03T18:57:18.778Z,100777.84
2022-12-03T18:59:53.655Z,100782.50
2022-12-03T19:03:01.763Z,100784.94
2022-12-03T19:05:20.043Z,100780.59
2022-12-03T19:07:55.385Z,100772.38
2022-12-03T19:10:24.857Z,100783.06
2022-12-03T19:12:52.758Z,100791.78
2022-12-03T19:15:21.459Z,100780.31
2022-12-03T19:17:50.223Z,100784.66
2022-12-03T19:20:19.798Z,100783.28
2022-12-03T19:22:52.785Z,100782.50
2022-12-03T19:25:20.946Z,100785.22
2022-12-03T19:27:55.805Z,100782.47
2022-12-03T19:30:31.027Z,100789.59
2022-12-03T19:33:07.306Z,100783.84
2022-12-03T19:35:51.236Z,100775.91
2022-12-03T19:38:35.476Z,100778.94
2022-12-03T19:41:23.001Z,100779.75
2022-12-03T19:44:09.275Z,100775.38
2022-12-03T19:46:49.057Z,100769.63
2022-12-03T19:49:32.144Z,100779.75
2022-12-03T19:52:00.920Z,100775.66
2022-12-03T19:54:28.966Z,100770.16
2022-12-03T19:56:57.123Z,100779.19
2022-12-03T19:59:25.426Z,100773.72
2022-12-03T20:01:53.703Z,100780.84
2022-12-03T20:04:21.636Z,100773.19
2022-12-03T20:06:49.583Z,100786.31
2022-12-03T20:09:24.594Z,100790.94
2022-12-03T20:11:58.906Z,100789.59
2022-12-03T20:14:26.771Z,100775.38
2022-12-03T20:16:55.713Z,100786.31
2022-12-03T20:19:24.088Z,100780.31
2022-12-03T20:21:51.997Z,100777.56
2022-12-03T20:24:19.935Z,100783.28
2022-12-03T20:26:47.767Z,100770.44
2022-12-03T20:29:16.003Z,100781.13
2022-12-03T20:31:44.472Z,100771.25
2022-12-03T20:34:12.754Z,100777.03
2022-12-03T20:36:43.228Z,100778.66
2022-12-03T20:39:12.583Z,100772.06
2022-12-03T20:41:40.589Z,100773.19
2022-12-03T20:44:08.593Z,100763.94
2022-12-03T20:46:39.978Z,100757.09
2022-12-03T20:49:10.736Z,100756.25
2022-12-03T20:51:44.515Z,100758.44
2022-12-03T20:54:25.424Z,100758.44
2022-12-03T20:57:17.200Z,100744.50
2022-12-03T20:59:50.980Z,100730.03
2022-12-03T21:02:19.177Z,100726.72
2022-12-03T21:04:47.342Z,100735.50
2022-12-03T21:07:15.182Z,100733.56
2022-12-03T21:09:43.076Z,100720.16
2022-12-03T21:12:11.116Z,100729.47
2022-12-03T21:14:40.295Z,100724.53
2022-12-03T21:17:09.601Z,100727.84
2022-12-03T21:19:38.256Z,100730.31
2022-12-03T21:22:07.589Z,100732.75
2022-12-03T21:24:35.805Z,100725.38
2022-12-03T21:27:05.334Z,100726.44
2022-12-03T21:29:33.250Z,100713.63
2022-12-03T21:32:04.514Z,100726.22
2022-12-03T21:34:36.405Z,100721.28
2022-12-03T21:37:04.772Z,100719.34
2022-12-03T21:39:32.790Z,100717.13
2022-12-03T21:42:19.370Z,100712.53
2022-12-03T21:44:48.734Z,100711.66
2022-12-03T21:47:17.096Z,100709.47
2022-12-03T21:49:45.045Z,100706.13
2022-12-03T21:52:12.877Z,100714.09
2022-12-03T21:54:40.771Z,100707.00
2022-12-03T21:57:08.621Z,100717.69
2022-12-03T21:59:36.709Z,100709.97
2022-12-03T22:02:04.916Z,100716.56
2022-12-03T22:04:33.003Z,100713.50
2022-12-03T22:07:00.893Z,100715.47
2022-12-03T22:09:28.931Z,100716.28
2022-12-03T22:11:59.382Z,100718.22
2022-12-03T22:14:28.185Z,100723.69
2022-12-03T22:16:56.430Z,100722.53
2022-12-03T22:19:25.693Z,100720.41
2022-12-03T22:21:53.507Z,100718.44
2022-12-03T22:24:21.631Z,100714.34
2022-12-03T22:26:49.645Z,100715.69
2022-12-03T22:29:17.484Z,100709.66
2022-12-03T22:31:45.371Z,100709.69
2022-12-03T22:34:13.349Z,100722.31
2022-12-03T22:36:41.307Z,100720.13
2022-12-03T22:39:09.206Z,100720.41
2022-12-03T22:41:37.097Z,100728.88
2022-12-03T22:44:05.230Z,100735.19
2022-12-03T22:46:33.407Z,100736.25
2022-12-03T22:49:06.661Z,100746.88
2022-12-03T22:51:35.771Z,100737.59
2022-12-03T22:54:04.209Z,100736.81
2022-12-03T22:56:32.819Z,100726.03
2022-12-03T22:59:01.057Z,100718.44
2022-12-03T23:01:30.826Z,100715.69
2022-12-03T23:03:59.573Z,100717.34
2022-12-03T23:06:28.806Z,100703.63
2022-12-03T23:08:58.351Z,100704.75
2022-12-03T23:11:27.073Z,100699.56
2022-12-03T23:13:55.161Z,100697.13
2022-12-03T23:16:26.356Z,100683.44
2022-12-03T23:18:54.864Z,100670.22
2022-12-03T23:21:29.517Z,100680.59
2022-12-03T23:24:03.535Z,100663.66
2022-12-03T23:26:34.982Z,100655.66
2022-12-03T23:29:03.068Z,100647.22
2022-12-03T23:31:32.790Z,100645.88
2022-12-03T23:34:01.185Z,100650.22
2022-12-03T23:36:32.396Z,100652.09
2022-12-03T23:39:00.659Z,100651.88
2022-12-03T23:41:28.812Z,100646.94
2022-12-03T23:43:57.175Z,100639.78
2022-12-03T23:46:27.670Z,100639.00
2022-12-03T23:48:56.333Z,100641.78
2022-12-03T23:51:25.591Z,100634.97
2022-12-03T23:53:54.989Z,100637.13
2022-12-03T23:56:25.696Z,100639.59
2022-12-03T23:58:53.864Z,100633.59
